sensor_id;sensor_type;location;lat;lon;timestamp;temperature;humidity
75372;HTU21D;63956;52.006;5.878;2023-05-07T00:01:19;16.46;70.87
75372;HTU21D;63956;52.006;5.878;2023-05-07T00:03:48;16.44;70.89
75372;HTU21D;63956;52.006;5.878;2023-05-07T00:06:17;16.45;70.93
75372;HTU21D;63956;52.006;5.878;2023-05-07T00:08:46;16.42;70.92
75372;HTU21D;63956;52.006;5.878;2023-05-07T00:11:18;16.42;70.93
75372;HTU21D;63956;52.006;5.878;2023-05-07T00:13:47;16.42;70.97
75372;HTU21D;63956;52.006;5.878;2023-05-07T00:16:17;16.40;71.00
75372;HTU21D;63956;52.006;5.878;2023-05-07T00:18:46;16.40;70.98
75372;HTU21D;63956;52.006;5.878;2023-05-07T00:21:15;16.37;71.02
75372;HTU21D;63956;52.006;5.878;2023-05-07T00:23:44;16.37;71.02
75372;HTU21D;63956;52.006;5.878;2023-05-07T00:26:13;16.35;71.03
75372;HTU21D;63956;52.006;5.878;2023-05-07T00:28:46;16.34;71.03
75372;HTU21D;63956;52.006;5.878;2023-05-07T00:31:15;16.33;71.06
75372;HTU21D;63956;52.006;5.878;2023-05-07T00:33:44;16.32;71.07
75372;HTU21D;63956;52.006;5.878;2023-05-07T00:36:13;16.29;71.13
75372;HTU21D;63956;52.006;5.878;2023-05-07T00:38:42;16.27;71.13
75372;HTU21D;63956;52.006;5.878;2023-05-07T00:41:12;16.26;71.12
75372;HTU21D;63956;52.006;5.878;2023-05-07T00:43:41;16.26;71.12
75372;HTU21D;63956;52.006;5.878;2023-05-07T00:46:13;16.22;71.13
75372;HTU21D;63956;52.006;5.878;2023-05-07T00:48:42;16.21;71.17
75372;HTU21D;63956;52.006;5.878;2023-05-07T00:51:12;16.18;71.21
75372;HTU21D;63956;52.006;5.878;2023-05-07T00:53:41;16.17;71.19
75372;HTU21D;63956;52.006;5.878;2023-05-07T00:56:10;16.13;71.23
75372;HTU21D;63956;52.006;5.878;2023-05-07T00:58:40;16.11;71.24
75372;HTU21D;63956;52.006;5.878;2023-05-07T01:01:12;16.08;71.25
75372;HTU21D;63956;52.006;5.878;2023-05-07T01:03:42;16.05;71.24
75372;HTU21D;63956;52.006;5.878;2023-05-07T01:06:12;16.02;71.25
75372;HTU21D;63956;52.006;5.878;2023-05-07T01:08:43;15.99;71.26
75372;HTU21D;63956;52.006;5.878;2023-05-07T01:11:12;15.96;71.29
75372;HTU21D;63956;52.006;5.878;2023-05-07T01:13:43;15.92;71.30
75372;HTU21D;63956;52.006;5.878;2023-05-07T01:16:15;15.89;71.28
75372;HTU21D;63956;52.006;5.878;2023-05-07T01:18:44;15.85;71.29
75372;HTU21D;63956;52.006;5.878;2023-05-07T01:21:16;15.80;71.32
75372;HTU21D;63956;52.006;5.878;2023-05-07T01:23:49;15.75;71.34
75372;HTU21D;63956;52.006;5.878;2023-05-07T01:26:18;15.73;71.32
75372;HTU21D;63956;52.006;5.878;2023-05-07T01:28:48;15.69;71.32
75372;HTU21D;63956;52.006;5.878;2023-05-07T01:31:17;15.67;71.34
75372;HTU21D;63956;52.006;5.878;2023-05-07T01:33:48;15.67;71.34
75372;HTU21D;63956;52.006;5.878;2023-05-07T01:36:20;15.65;71.34
75372;HTU21D;63956;52.006;5.878;2023-05-07T01:38:54;15.63;71.39
75372;HTU21D;63956;52.006;5.878;2023-05-07T01:41:24;15.63;71.37
75372;HTU21D;63956;52.006;5.878;2023-05-07T01:43:54;15.62;71.35
75372;HTU21D;63956;52.006;5.878;2023-05-07T01:46:24;15.63;71.38
75372;HTU21D;63956;52.006;5.878;2023-05-07T01:48:55;15.63;71.35
75372;HTU21D;63956;52.006;5.878;2023-05-07T01:51:24;15.62;71.37
75372;HTU21D;63956;52.006;5.878;2023-05-07T01:53:56;15.65;71.36
75372;HTU21D;63956;52.006;5.878;2023-05-07T01:56:26;15.66;71.35
75372;HTU21D;63956;52.006;5.878;2023-05-07T01:58:56;15.65;71.39
75372;HTU21D;63956;52.006;5.878;2023-05-07T02:01:25;15.65;71.42
75372;HTU21D;63956;52.006;5.878;2023-05-07T02:03:55;15.65;71.45
75372;HTU21D;63956;52.006;5.878;2023-05-07T02:06:27;15.67;71.45
75372;HTU21D;63956;52.006;5.878;2023-05-07T02:09:04;15.68;71.48
75372;HTU21D;63956;52.006;5.878;2023-05-07T02:11:38;15.68;71.50
75372;HTU21D;63956;52.006;5.878;2023-05-07T02:14:07;15.69;71.50
75372;HTU21D;63956;52.006;5.878;2023-05-07T02:16:36;15.70;71.53
75372;HTU21D;63956;52.006;5.878;2023-05-07T02:19:06;15.71;71.52
75372;HTU21D;63956;52.006;5.878;2023-05-07T02:21:35;15.72;71.58
75372;HTU21D;63956;52.006;5.878;2023-05-07T02:24:08;15.73;71.58
75372;HTU21D;63956;52.006;5.878;2023-05-07T02:26:37;15.75;71.60
75372;HTU21D;63956;52.006;5.878;2023-05-07T02:29:07;15.74;71.63
75372;HTU21D;63956;52.006;5.878;2023-05-07T02:31:38;15.76;71.63
75372;HTU21D;63956;52.006;5.878;2023-05-07T02:34:07;15.76;71.64
75372;HTU21D;63956;52.006;5.878;2023-05-07T02:36:36;15.78;71.63
75372;HTU21D;63956;52.006;5.878;2023-05-07T02:39:13;15.80;71.61
75372;HTU21D;63956;52.006;5.878;2023-05-07T02:41:43;15.81;71.64
75372;HTU21D;63956;52.006;5.878;2023-05-07T02:44:12;15.80;71.65
75372;HTU21D;63956;52.006;5.878;2023-05-07T02:46:41;15.78;71.70
75372;HTU21D;63956;52.006;5.878;2023-05-07T02:49:12;15.76;71.72
75372;HTU21D;63956;52.006;5.878;2023-05-07T02:51:42;15.75;71.75
75372;HTU21D;63956;52.006;5.878;2023-05-07T02:54:20;15.75;71.76
75372;HTU21D;63956;52.006;5.878;2023-05-07T02:56:49;15.74;71.80
75372;HTU21D;63956;52.006;5.878;2023-05-07T02:59:18;15.75;71.83
75372;HTU21D;63956;52.006;5.878;2023-05-07T03:01:48;15.75;71.84
75372;HTU21D;63956;52.006;5.878;2023-05-07T03:04:17;15.75;71.84
75372;HTU21D;63956;52.006;5.878;2023-05-07T03:06:46;15.74;71.83
75372;HTU21D;63956;52.006;5.878;2023-05-07T03:09:15;15.77;71.81
75372;HTU21D;63956;52.006;5.878;2023-05-07T03:11:48;15.77;71.79
75372;HTU21D;63956;52.006;5.878;2023-05-07T03:14:17;15.80;71.77
75372;HTU21D;63956;52.006;5.878;2023-05-07T03:16:46;15.80;71.77
75372;HTU21D;63956;52.006;5.878;2023-05-07T03:19:15;15.78;71.80
75372;HTU21D;63956;52.006;5.878;2023-05-07T03:21:45;15.77;71.82
75372;HTU21D;63956;52.006;5.878;2023-05-07T03:24:14;15.77;71.84
75372;HTU21D;63956;52.006;5.878;2023-05-07T03:26:43;15.76;71.87
75372;HTU21D;63956;52.006;5.878;2023-05-07T03:29:15;15.78;71.87
75372;HTU21D;63956;52.006;5.878;2023-05-07T03:31:44;15.76;71.90
75372;HTU21D;63956;52.006;5.878;2023-05-07T03:34:13;15.78;71.88
75372;HTU21D;63956;52.006;5.878;2023-05-07T03:36:43;15.77;71.90
75372;HTU21D;63956;52.006;5.878;2023-05-07T03:39:13;15.76;71.91
75372;HTU21D;63956;52.006;5.878;2023-05-07T03:41:42;15.77;71.93
75372;HTU21D;63956;52.006;5.878;2023-05-07T03:44:12;15.77;71.93
75372;HTU21D;63956;52.006;5.878;2023-05-07T03:46:44;15.78;71.90
75372;HTU21D;63956;52.006;5.878;2023-05-07T03:49:13;15.78;71.91
75372;HTU21D;63956;52.006;5.878;2023-05-07T03:51:42;15.77;71.96
75372;HTU21D;63956;52.006;5.878;2023-05-07T03:54:12;15.78;72.00
75372;HTU21D;63956;52.006;5.878;2023-05-07T03:56:44;15.78;71.96
75372;HTU21D;63956;52.006;5.878;2023-05-07T03:59:13;15.78;71.97
75372;HTU21D;63956;52.006;5.878;2023-05-07T04:01:47;15.78;71.98
75372;HTU21D;63956;52.006;5.878;2023-05-07T04:04:19;15.78;71.96
75372;HTU21D;63956;52.006;5.878;2023-05-07T04:06:49;15.81;71.93
75372;HTU21D;63956;52.006;5.878;2023-05-07T04:09:18;15.82;71.96
75372;HTU21D;63956;52.006;5.878;2023-05-07T04:11:48;15.83;71.99
75372;HTU21D;63956;52.006;5.878;2023-05-07T04:14:17;15.82;71.99
75372;HTU21D;63956;52.006;5.878;2023-05-07T04:16:49;15.82;72.00
75372;HTU21D;63956;52.006;5.878;2023-05-07T04:19:19;15.84;72.02
75372;HTU21D;63956;52.006;5.878;2023-05-07T04:21:51;15.84;72.01
75372;HTU21D;63956;52.006;5.878;2023-05-07T04:24:21;15.86;72.01
75372;HTU21D;63956;52.006;5.878;2023-05-07T04:26:50;15.85;72.06
75372;HTU21D;63956;52.006;5.878;2023-05-07T04:29:21;15.85;72.09
75372;HTU21D;63956;52.006;5.878;2023-05-07T04:31:53;15.85;72.09
75372;HTU21D;63956;52.006;5.878;2023-05-07T04:34:23;15.87;72.11
75372;HTU21D;63956;52.006;5.878;2023-05-07T04:36:52;15.87;72.11
75372;HTU21D;63956;52.006;5.878;2023-05-07T04:39:22;15.87;72.13
75372;HTU21D;63956;52.006;5.878;2023-05-07T04:41:51;15.90;72.21
75372;HTU21D;63956;52.006;5.878;2023-05-07T04:44:20;15.89;72.21
75372;HTU21D;63956;52.006;5.878;2023-05-07T04:46:49;15.89;72.21
75372;HTU21D;63956;52.006;5.878;2023-05-07T04:49:21;15.88;72.25
75372;HTU21D;63956;52.006;5.878;2023-05-07T04:51:52;15.89;72.31
75372;HTU21D;63956;52.006;5.878;2023-05-07T04:54:23;15.90;72.29
75372;HTU21D;63956;52.006;5.878;2023-05-07T04:56:52;15.91;72.30
75372;HTU21D;63956;52.006;5.878;2023-05-07T04:59:22;15.91;72.33
75372;HTU21D;63956;52.006;5.878;2023-05-07T05:01:51;15.92;72.34
75372;HTU21D;63956;52.006;5.878;2023-05-07T05:04:23;15.93;72.38
75372;HTU21D;63956;52.006;5.878;2023-05-07T05:06:52;15.93;72.40
75372;HTU21D;63956;52.006;5.878;2023-05-07T05:09:22;15.95;72.43
75372;HTU21D;63956;52.006;5.878;2023-05-07T05:11:51;15.97;72.41
75372;HTU21D;63956;52.006;5.878;2023-05-07T05:14:21;15.97;72.42
75372;HTU21D;63956;52.006;5.878;2023-05-07T05:16:51;15.98;72.43
75372;HTU21D;63956;52.006;5.878;2023-05-07T05:19:23;16.00;72.46
75372;HTU21D;63956;52.006;5.878;2023-05-07T05:21:52;16.00;72.51
75372;HTU21D;63956;52.006;5.878;2023-05-07T05:24:22;16.01;72.48
75372;HTU21D;63956;52.006;5.878;2023-05-07T05:26:53;15.99;72.50
75372;HTU21D;63956;52.006;5.878;2023-05-07T05:29:23;16.02;72.48
75372;HTU21D;63956;52.006;5.878;2023-05-07T05:31:52;16.03;72.49
75372;HTU21D;63956;52.006;5.878;2023-05-07T05:34:24;16.03;72.55
75372;HTU21D;63956;52.006;5.878;2023-05-07T05:36:54;16.04;72.58
75372;HTU21D;63956;52.006;5.878;2023-05-07T05:39:23;16.04;72.60
75372;HTU21D;63956;52.006;5.878;2023-05-07T05:41:52;16.04;72.61
75372;HTU21D;63956;52.006;5.878;2023-05-07T05:44:21;16.06;72.60
75372;HTU21D;63956;52.006;5.878;2023-05-07T05:46:51;16.08;72.63
75372;HTU21D;63956;52.006;5.878;2023-05-07T05:49:25;16.08;72.61
75372;HTU21D;63956;52.006;5.878;2023-05-07T05:51:54;16.10;72.63
75372;HTU21D;63956;52.006;5.878;2023-05-07T05:54:25;16.12;72.65
75372;HTU21D;63956;52.006;5.878;2023-05-07T05:56:54;16.12;72.68
75372;HTU21D;63956;52.006;5.878;2023-05-07T05:59:24;16.13;72.70
75372;HTU21D;63956;52.006;5.878;2023-05-07T06:01:54;16.14;72.70
75372;HTU21D;63956;52.006;5.878;2023-05-07T06:04:26;16.16;72.73
75372;HTU21D;63956;52.006;5.878;2023-05-07T06:06:55;16.15;72.77
75372;HTU21D;63956;52.006;5.878;2023-05-07T06:09:26;16.15;72.78
75372;HTU21D;63956;52.006;5.878;2023-05-07T06:11:55;16.17;72.84
75372;HTU21D;63956;52.006;5.878;2023-05-07T06:14:24;16.16;72.84
75372;HTU21D;63956;52.006;5.878;2023-05-07T06:16:55;16.19;72.83
75372;HTU21D;63956;52.006;5.878;2023-05-07T06:19:27;16.19;72.87
75372;HTU21D;63956;52.006;5.878;2023-05-07T06:21:57;16.21;72.87
75372;HTU21D;63956;52.006;5.878;2023-05-07T06:24:29;16.21;72.90
75372;HTU21D;63956;52.006;5.878;2023-05-07T06:26:58;16.21;72.98
75372;HTU21D;63956;52.006;5.878;2023-05-07T06:29:29;16.24;72.94
75372;HTU21D;63956;52.006;5.878;2023-05-07T06:32:07;16.24;72.93
75372;HTU21D;63956;52.006;5.878;2023-05-07T06:34:43;16.24;73.05
75372;HTU21D;63956;52.006;5.878;2023-05-07T06:37:13;16.25;73.13
75372;HTU21D;63956;52.006;5.878;2023-05-07T06:40:03;16.27;73.09
75372;HTU21D;63956;52.006;5.878;2023-05-07T06:42:36;16.30;73.15
75372;HTU21D;63956;52.006;5.878;2023-05-07T06:45:43;16.33;73.14
75372;HTU21D;63956;52.006;5.878;2023-05-07T06:48:13;16.36;73.16
75372;HTU21D;63956;52.006;5.878;2023-05-07T06:51:01;16.41;73.09
75372;HTU21D;63956;52.006;5.878;2023-05-07T06:53:31;16.43;73.11
75372;HTU21D;63956;52.006;5.878;2023-05-07T06:56:02;16.44;73.17
75372;HTU21D;63956;52.006;5.878;2023-05-07T06:58:31;16.48;73.17
75372;HTU21D;63956;52.006;5.878;2023-05-07T07:01:00;16.50;73.20
75372;HTU21D;63956;52.006;5.878;2023-05-07T07:03:31;16.57;73.18
75372;HTU21D;63956;52.006;5.878;2023-05-07T07:06:03;16.60;73.11
75372;HTU21D;63956;52.006;5.878;2023-05-07T07:08:33;16.64;73.10
75372;HTU21D;63956;52.006;5.878;2023-05-07T07:11:05;16.67;73.07
75372;HTU21D;63956;52.006;5.878;2023-05-07T07:13:34;16.71;73.09
75372;HTU21D;63956;52.006;5.878;2023-05-07T07:16:03;16.71;73.05
75372;HTU21D;63956;52.006;5.878;2023-05-07T07:18:33;16.73;73.12
75372;HTU21D;63956;52.006;5.878;2023-05-07T07:21:05;16.77;73.11
75372;HTU21D;63956;52.006;5.878;2023-05-07T07:23:34;16.79;73.12
75372;HTU21D;63956;52.006;5.878;2023-05-07T07:26:03;16.84;73.15
75372;HTU21D;63956;52.006;5.878;2023-05-07T07:28:33;16.87;73.11
75372;HTU21D;63956;52.006;5.878;2023-05-07T07:31:02;16.90;73.09
75372;HTU21D;63956;52.006;5.878;2023-05-07T07:33:31;16.94;73.04
75372;HTU21D;63956;52.006;5.878;2023-05-07T07:36:00;16.98;73.03
75372;HTU21D;63956;52.006;5.878;2023-05-07T07:38:32;17.00;73.08
75372;HTU21D;63956;52.006;5.878;2023-05-07T07:41:02;17.04;72.96
75372;HTU21D;63956;52.006;5.878;2023-05-07T07:43:31;17.07;72.97
75372;HTU21D;63956;52.006;5.878;2023-05-07T07:46:02;17.11;73.03
75372;HTU21D;63956;52.006;5.878;2023-05-07T07:48:33;17.16;72.99
75372;HTU21D;63956;52.006;5.878;2023-05-07T07:51:02;17.20;72.95
75372;HTU21D;63956;52.006;5.878;2023-05-07T07:53:34;17.24;73.01
75372;HTU21D;63956;52.006;5.878;2023-05-07T07:56:04;17.29;72.95
75372;HTU21D;63956;52.006;5.878;2023-05-07T07:58:34;17.33;72.97
75372;HTU21D;63956;52.006;5.878;2023-05-07T08:01:05;17.34;72.93
75372;HTU21D;63956;52.006;5.878;2023-05-07T08:03:34;17.36;72.82
75372;HTU21D;63956;52.006;5.878;2023-05-07T08:06:04;17.37;72.67
75372;HTU21D;63956;52.006;5.878;2023-05-07T08:08:38;17.40;72.62
75372;HTU21D;63956;52.006;5.878;2023-05-07T08:11:07;17.41;72.58
75372;HTU21D;63956;52.006;5.878;2023-05-07T08:13:36;17.46;72.59
75372;HTU21D;63956;52.006;5.878;2023-05-07T08:16:07;17.48;72.53
75372;HTU21D;63956;52.006;5.878;2023-05-07T08:18:36;17.50;72.45
75372;HTU21D;63956;52.006;5.878;2023-05-07T08:21:06;17.53;72.48
75372;HTU21D;63956;52.006;5.878;2023-05-07T08:23:37;17.58;72.47
75372;HTU21D;63956;52.006;5.878;2023-05-07T08:26:08;17.61;72.36
75372;HTU21D;63956;52.006;5.878;2023-05-07T08:28:37;17.63;72.24
75372;HTU21D;63956;52.006;5.878;2023-05-07T08:31:07;17.64;72.16
75372;HTU21D;63956;52.006;5.878;2023-05-07T08:33:39;17.67;72.07
75372;HTU21D;63956;52.006;5.878;2023-05-07T08:36:08;17.69;72.06
75372;HTU21D;63956;52.006;5.878;2023-05-07T08:38:40;17.73;72.14
75372;HTU21D;63956;52.006;5.878;2023-05-07T08:41:12;17.77;72.08
75372;HTU21D;63956;52.006;5.878;2023-05-07T08:43:47;17.81;72.07
75372;HTU21D;63956;52.006;5.878;2023-05-07T08:46:20;17.83;72.09
75372;HTU21D;63956;52.006;5.878;2023-05-07T08:48:54;17.87;71.96
75372;HTU21D;63956;52.006;5.878;2023-05-07T08:51:23;17.88;71.84
75372;HTU21D;63956;52.006;5.878;2023-05-07T08:53:56;17.87;71.87
75372;HTU21D;63956;52.006;5.878;2023-05-07T08:56:29;17.90;71.80
75372;HTU21D;63956;52.006;5.878;2023-05-07T08:58:59;17.90;71.77
75372;HTU21D;63956;52.006;5.878;2023-05-07T09:01:30;17.93;71.67
75372;HTU21D;63956;52.006;5.878;2023-05-07T09:04:01;17.93;71.58
75372;HTU21D;63956;52.006;5.878;2023-05-07T09:06:33;17.96;71.45
75372;HTU21D;63956;52.006;5.878;2023-05-07T09:09:07;18.03;71.33
75372;HTU21D;63956;52.006;5.878;2023-05-07T09:11:39;18.02;71.40
75372;HTU21D;63956;52.006;5.878;2023-05-07T09:14:09;18.05;71.29
75372;HTU21D;63956;52.006;5.878;2023-05-07T09:16:41;18.07;71.35
75372;HTU21D;63956;52.006;5.878;2023-05-07T09:19:10;18.10;71.31
75372;HTU21D;63956;52.006;5.878;2023-05-07T09:21:44;18.14;71.07
75372;HTU21D;63956;52.006;5.878;2023-05-07T09:24:17;18.19;71.12
75372;HTU21D;63956;52.006;5.878;2023-05-07T09:26:47;18.22;71.06
75372;HTU21D;63956;52.006;5.878;2023-05-07T09:29:16;18.25;71.05
75372;HTU21D;63956;52.006;5.878;2023-05-07T09:31:46;18.29;71.00
75372;HTU21D;63956;52.006;5.878;2023-05-07T09:34:16;18.35;70.85
75372;HTU21D;63956;52.006;5.878;2023-05-07T09:36:47;18.40;70.87
75372;HTU21D;63956;52.006;5.878;2023-05-07T09:39:19;18.46;70.79
75372;HTU21D;63956;52.006;5.878;2023-05-07T09:41:49;18.50;70.61
75372;HTU21D;63956;52.006;5.878;2023-05-07T09:44:26;18.54;70.70
75372;HTU21D;63956;52.006;5.878;2023-05-07T09:46:56;18.59;70.61
75372;HTU21D;63956;52.006;5.878;2023-05-07T09:49:37;18.67;70.29
75372;HTU21D;63956;52.006;5.878;2023-05-07T09:52:10;18.72;70.37
75372;HTU21D;63956;52.006;5.878;2023-05-07T09:54:48;18.78;70.13
75372;HTU21D;63956;52.006;5.878;2023-05-07T09:57:23;18.81;70.35
75372;HTU21D;63956;52.006;5.878;2023-05-07T09:59:58;18.87;70.35
75372;HTU21D;63956;52.006;5.878;2023-05-07T10:02:36;18.96;70.47
75372;HTU21D;63956;52.006;5.878;2023-05-07T10:05:12;19.01;70.07
75372;HTU21D;63956;52.006;5.878;2023-05-07T10:07:43;19.08;69.96
75372;HTU21D;63956;52.006;5.878;2023-05-07T10:10:17;19.15;69.88
75372;HTU21D;63956;52.006;5.878;2023-05-07T10:12:47;19.20;69.71
75372;HTU21D;63956;52.006;5.878;2023-05-07T10:15:24;19.25;69.74
75372;HTU21D;63956;52.006;5.878;2023-05-07T10:17:56;19.30;69.35
75372;HTU21D;63956;52.006;5.878;2023-05-07T10:20:26;19.32;69.43
75372;HTU21D;63956;52.006;5.878;2023-05-07T10:22:57;19.39;69.11
75372;HTU21D;63956;52.006;5.878;2023-05-07T10:25:38;19.44;68.98
75372;HTU21D;63956;52.006;5.878;2023-05-07T10:28:15;19.47;68.78
75372;HTU21D;63956;52.006;5.878;2023-05-07T10:30:57;19.53;68.88
75372;HTU21D;63956;52.006;5.878;2023-05-07T10:33:36;19.59;68.86
75372;HTU21D;63956;52.006;5.878;2023-05-07T10:36:07;19.66;68.69
75372;HTU21D;63956;52.006;5.878;2023-05-07T10:38:37;19.70;68.49
75372;HTU21D;63956;52.006;5.878;2023-05-07T10:41:10;19.77;68.13
75372;HTU21D;63956;52.006;5.878;2023-05-07T10:43:44;19.80;68.24
75372;HTU21D;63956;52.006;5.878;2023-05-07T10:46:21;19.86;68.02
75372;HTU21D;63956;52.006;5.878;2023-05-07T10:49:09;19.90;68.10
75372;HTU21D;63956;52.006;5.878;2023-05-07T10:52:12;19.98;67.88
75372;HTU21D;63956;52.006;5.878;2023-05-07T10:55:20;19.99;67.62
75372;HTU21D;63956;52.006;5.878;2023-05-07T10:58:26;20.03;67.39
75372;HTU21D;63956;52.006;5.878;2023-05-07T11:01:04;20.04;67.12
75372;HTU21D;63956;52.006;5.878;2023-05-07T11:04:13;20.11;67.16
75372;HTU21D;63956;52.006;5.878;2023-05-07T11:07:27;20.15;66.94
75372;HTU21D;63956;52.006;5.878;2023-05-07T11:10:03;20.19;66.71
75372;HTU21D;63956;52.006;5.878;2023-05-07T11:12:53;20.25;66.63
75372;HTU21D;63956;52.006;5.878;2023-05-07T11:15:43;20.32;66.26
75372;HTU21D;63956;52.006;5.878;2023-05-07T11:18:20;20.35;65.88
75372;HTU21D;63956;52.006;5.878;2023-05-07T11:20:56;20.41;66.01
75372;HTU21D;63956;52.006;5.878;2023-05-07T11:26:50;20.55;65.29
75372;HTU21D;63956;52.006;5.878;2023-05-07T11:29:21;20.58;65.35
75372;HTU21D;63956;52.006;5.878;2023-05-07T11:32:13;20.64;65.23
75372;HTU21D;63956;52.006;5.878;2023-05-07T11:34:51;20.69;64.86
75372;HTU21D;63956;52.006;5.878;2023-05-07T11:37:22;20.73;65.01
75372;HTU21D;63956;52.006;5.878;2023-05-07T11:40:05;20.79;64.94
75372;HTU21D;63956;52.006;5.878;2023-05-07T11:42:36;20.81;64.94
75372;HTU21D;63956;52.006;5.878;2023-05-07T11:45:06;20.84;64.80
75372;HTU21D;63956;52.006;5.878;2023-05-07T11:47:41;20.86;64.92
75372;HTU21D;63956;52.006;5.878;2023-05-07T11:50:11;20.87;64.88
75372;HTU21D;63956;52.006;5.878;2023-05-07T11:52:50;20.90;64.93
75372;HTU21D;63956;52.006;5.878;2023-05-07T11:55:19;20.91;64.95
75372;HTU21D;63956;52.006;5.878;2023-05-07T11:57:50;20.94;64.59
75372;HTU21D;63956;52.006;5.878;2023-05-07T12:00:19;20.94;64.36
75372;HTU21D;63956;52.006;5.878;2023-05-07T12:02:51;20.96;64.51
75372;HTU21D;63956;52.006;5.878;2023-05-07T12:05:20;20.99;64.53
75372;HTU21D;63956;52.006;5.878;2023-05-07T12:07:56;21.03;64.47
75372;HTU21D;63956;52.006;5.878;2023-05-07T12:10:25;21.05;64.51
75372;HTU21D;63956;52.006;5.878;2023-05-07T12:12:54;21.08;64.47
75372;HTU21D;63956;52.006;5.878;2023-05-07T12:15:24;21.11;64.30
75372;HTU21D;63956;52.006;5.878;2023-05-07T12:17:56;21.19;64.35
75372;HTU21D;63956;52.006;5.878;2023-05-07T12:20:25;21.22;64.08
75372;HTU21D;63956;52.006;5.878;2023-05-07T12:22:54;21.25;64.00
75372;HTU21D;63956;52.006;5.878;2023-05-07T12:25:24;21.27;64.12
75372;HTU21D;63956;52.006;5.878;2023-05-07T12:27:53;21.33;64.06
75372;HTU21D;63956;52.006;5.878;2023-05-07T12:30:24;21.36;63.85
75372;HTU21D;63956;52.006;5.878;2023-05-07T12:32:56;21.38;63.85
75372;HTU21D;63956;52.006;5.878;2023-05-07T12:35:28;21.43;63.78
75372;HTU21D;63956;52.006;5.878;2023-05-07T12:37:58;21.45;63.55
75372;HTU21D;63956;52.006;5.878;2023-05-07T12:40:40;21.53;63.24
75372;HTU21D;63956;52.006;5.878;2023-05-07T12:43:15;21.57;63.12
75372;HTU21D;63956;52.006;5.878;2023-05-07T12:45:46;21.62;63.30
75372;HTU21D;63956;52.006;5.878;2023-05-07T12:48:19;21.67;63.63
75372;HTU21D;63956;52.006;5.878;2023-05-07T12:50:49;21.74;63.52
75372;HTU21D;63956;52.006;5.878;2023-05-07T12:53:21;21.77;63.24
75372;HTU21D;63956;52.006;5.878;2023-05-07T12:55:52;21.74;63.04
75372;HTU21D;63956;52.006;5.878;2023-05-07T12:58:25;21.74;63.28
75372;HTU21D;63956;52.006;5.878;2023-05-07T13:00:55;21.73;63.43
75372;HTU21D;63956;52.006;5.878;2023-05-07T13:03:31;21.73;63.50
75372;HTU21D;63956;52.006;5.878;2023-05-07T13:06:03;21.67;63.31
75372;HTU21D;63956;52.006;5.878;2023-05-07T13:08:33;21.64;63.33
75372;HTU21D;63956;52.006;5.878;2023-05-07T13:11:04;21.60;63.25
75372;HTU21D;63956;52.006;5.878;2023-05-07T13:13:34;21.58;63.30
75372;HTU21D;63956;52.006;5.878;2023-05-07T13:16:06;21.57;63.32
75372;HTU21D;63956;52.006;5.878;2023-05-07T13:18:39;21.58;63.42
75372;HTU21D;63956;52.006;5.878;2023-05-07T13:21:09;21.55;63.36
75372;HTU21D;63956;52.006;5.878;2023-05-07T13:23:39;21.57;63.37
75372;HTU21D;63956;52.006;5.878;2023-05-07T13:26:08;21.55;63.35
75372;HTU21D;63956;52.006;5.878;2023-05-07T13:28:37;21.57;63.03
75372;HTU21D;63956;52.006;5.878;2023-05-07T13:31:06;21.54;62.89
75372;HTU21D;63956;52.006;5.878;2023-05-07T13:33:38;21.52;63.15
75372;HTU21D;63956;52.006;5.878;2023-05-07T13:36:07;21.53;63.23
75372;HTU21D;63956;52.006;5.878;2023-05-07T13:38:36;21.53;62.76
75372;HTU21D;63956;52.006;5.878;2023-05-07T13:41:05;21.53;62.71
75372;HTU21D;63956;52.006;5.878;2023-05-07T13:43:35;21.52;62.79
75372;HTU21D;63956;52.006;5.878;2023-05-07T13:46:04;21.50;62.89
75372;HTU21D;63956;52.006;5.878;2023-05-07T13:48:33;21.50;62.94
75372;HTU21D;63956;52.006;5.878;2023-05-07T13:51:05;21.51;62.89
75372;HTU21D;63956;52.006;5.878;2023-05-07T13:53:34;21.51;62.92
75372;HTU21D;63956;52.006;5.878;2023-05-07T13:56:04;21.52;62.57
75372;HTU21D;63956;52.006;5.878;2023-05-07T13:58:33;21.52;62.67
75372;HTU21D;63956;52.006;5.878;2023-05-07T14:01:02;21.52;62.76
75372;HTU21D;63956;52.006;5.878;2023-05-07T14:03:31;21.54;62.86
75372;HTU21D;63956;52.006;5.878;2023-05-07T14:06:06;21.59;62.84
75372;HTU21D;63956;52.006;5.878;2023-05-07T14:08:35;21.63;62.95
75372;HTU21D;63956;52.006;5.878;2023-05-07T14:11:04;21.65;62.81
75372;HTU21D;63956;52.006;5.878;2023-05-07T14:13:33;21.67;62.84
75372;HTU21D;63956;52.006;5.878;2023-05-07T14:16:04;21.70;62.60
75372;HTU21D;63956;52.006;5.878;2023-05-07T14:18:33;21.73;62.47
75372;HTU21D;63956;52.006;5.878;2023-05-07T14:21:05;21.74;62.43
75372;HTU21D;63956;52.006;5.878;2023-05-07T14:23:35;21.75;62.10
75372;HTU21D;63956;52.006;5.878;2023-05-07T14:26:04;21.77;62.19
75372;HTU21D;63956;52.006;5.878;2023-05-07T14:28:34;21.77;62.08
75372;HTU21D;63956;52.006;5.878;2023-05-07T14:31:05;21.76;62.15
75372;HTU21D;63956;52.006;5.878;2023-05-07T14:33:34;21.74;62.25
75372;HTU21D;63956;52.006;5.878;2023-05-07T14:36:06;21.73;62.34
75372;HTU21D;63956;52.006;5.878;2023-05-07T14:38:35;21.75;62.27
75372;HTU21D;63956;52.006;5.878;2023-05-07T14:41:05;21.73;62.24
75372;HTU21D;63956;52.006;5.878;2023-05-07T14:43:34;21.69;62.31
75372;HTU21D;63956;52.006;5.878;2023-05-07T14:46:03;21.69;62.37
75372;HTU21D;63956;52.006;5.878;2023-05-07T14:48:32;21.65;62.47
75372;HTU21D;63956;52.006;5.878;2023-05-07T14:51:01;21.65;62.52
75372;HTU21D;63956;52.006;5.878;2023-05-07T14:53:33;21.63;62.47
75372;HTU21D;63956;52.006;5.878;2023-05-07T14:56:02;21.59;62.77
75372;HTU21D;63956;52.006;5.878;2023-05-07T14:58:32;21.58;62.82
75372;HTU21D;63956;52.006;5.878;2023-05-07T15:01:03;21.58;62.84
75372;HTU21D;63956;52.006;5.878;2023-05-07T15:03:34;21.55;62.81
75372;HTU21D;63956;52.006;5.878;2023-05-07T15:06:03;21.53;62.86
75372;HTU21D;63956;52.006;5.878;2023-05-07T15:08:35;21.51;62.90
75372;HTU21D;63956;52.006;5.878;2023-05-07T15:11:04;21.49;62.99
75372;HTU21D;63956;52.006;5.878;2023-05-07T15:13:33;21.47;62.98
75372;HTU21D;63956;52.006;5.878;2023-05-07T15:16:02;21.44;63.07
75372;HTU21D;63956;52.006;5.878;2023-05-07T15:18:31;21.43;63.31
75372;HTU21D;63956;52.006;5.878;2023-05-07T15:21:00;21.39;63.30
75372;HTU21D;63956;52.006;5.878;2023-05-07T15:23:30;21.36;63.01
75372;HTU21D;63956;52.006;5.878;2023-05-07T15:26:02;21.34;63.25
75372;HTU21D;63956;52.006;5.878;2023-05-07T15:28:31;21.31;63.17
75372;HTU21D;63956;52.006;5.878;2023-05-07T15:31:00;21.29;63.31
75372;HTU21D;63956;52.006;5.878;2023-05-07T15:33:31;21.28;63.30
75372;HTU21D;63956;52.006;5.878;2023-05-07T15:36:00;21.25;63.15
75372;HTU21D;63956;52.006;5.878;2023-05-07T15:38:29;21.22;63.03
75372;HTU21D;63956;52.006;5.878;2023-05-07T15:40:58;21.17;63.03
75372;HTU21D;63956;52.006;5.878;2023-05-07T15:43:30;21.10;62.76
75372;HTU21D;63956;52.006;5.878;2023-05-07T15:45:59;21.05;62.71